Time;durP1;ratioP1;P1;durP2;ratioP2;P2;SDS_P1;SDS_P2;PMS_P1;PMS_P2;Temp;Humidity;BMP_temperature;BMP_pressure;BME280_temperature;BME280_humidity;BME280_pressure;Samples;Min_cycle;Max_cycle;Signal;HPM_P1;HPM_P2
2022/11/18 00:02:44;;;;;;;14.15;9.73;;;14.20;89.30;;;;;;11020948;32;20065;-77
2022/11/18 00:08:47;;;;;;;14.57;10.20;;;14.20;89.40;;;;;;11017386;32;20378;-77
2022/11/18 00:14:49;;;;;;;12.90;8.10;;;14.20;89.30;;;;;;11018206;32;20313;-78
2022/11/18 00:20:51;;;;;;;12.10;8.65;;;14.20;89.20;;;;;;11021180;32;20040;-77
2022/11/18 00:26:54;;;;;;;16.02;12.13;;;14.10;89.30;;;;;;11007224;32;20095;-77
2022/11/18 00:32:56;;;;;;;14.75;10.13;;;14.20;89.40;;;;;;11020741;32;20329;-75
2022/11/18 00:38:59;;;;;;;16.37;10.75;;;14.20;89.40;;;;;;11020485;32;20053;-76
2022/11/18 00:45:01;;;;;;;18.73;12.13;;;14.00;88.90;;;;;;11020162;32;20029;-77
2022/11/18 00:51:16;;;;;;;19.25;12.10;;;13.70;89.20;;;;;;11020029;32;20342;-75
2022/11/18 00:57:19;;;;;;;17.77;14.25;;;13.70;89.50;;;;;;11015555;32;20049;-77
2022/11/18 01:03:21;;;;;;;18.62;13.35;;;13.70;89.50;;;;;;11005728;32;20025;-77
2022/11/18 01:09:24;;;;;;;23.62;17.52;;;13.70;89.60;;;;;;11003413;32;20018;-75
2022/11/18 01:15:26;;;;;;;27.92;20.17;;;13.70;89.30;;;;;;11019182;32;20018;-76
2022/11/18 01:21:29;;;;;;;21.25;15.40;;;13.50;88.80;;;;;;11018830;32;20394;-76
2022/11/18 01:27:31;;;;;;;23.55;16.48;;;13.40;89.30;;;;;;11018907;32;20410;-77
2022/11/18 01:33:33;;;;;;;19.20;13.48;;;13.70;89.30;;;;;;11018685;32;20022;-79
2022/11/18 01:39:36;;;;;;;18.37;11.85;;;13.70;89.20;;;;;;11004871;32;20053;-78
2022/11/18 01:45:40;;;;;;;16.77;11.93;;;13.80;89.20;;;;;;10988543;32;20054;-77
2022/11/18 01:51:55;;;;;;;15.10;11.07;;;13.80;89.00;;;;;;10861964;32;20031;-77
2022/11/18 01:58:22;;;;;;;25.40;17.27;;;13.70;89.20;;;;;;10862028;32;20028;-75
2022/11/18 02:04:25;;;;;;;11.85;7.25;;;13.80;89.30;;;;;;10857634;32;20036;-77
2022/11/18 02:10:28;;;;;;;16.08;10.68;;;13.70;89.20;;;;;;10861611;32;20032;-77
2022/11/18 02:16:58;;;;;;;15.57;10.50;;;13.70;89.40;;;;;;10868163;32;20089;-77
2022/11/18 02:23:18;;;;;;;17.83;10.82;;;13.80;89.60;;;;;;10868536;32;20024;-77
2022/11/18 02:29:39;;;;;;;17.62;12.40;;;14.00;89.30;;;;;;10852516;32;20083;-77
2022/11/18 02:35:46;;;;;;;12.27;9.50;;;14.00;89.20;;;;;;10854848;32;20032;-76
2022/11/18 02:41:50;;;;;;;13.68;8.68;;;14.00;89.30;;;;;;10854228;32;20028;-75
2022/11/18 02:47:59;;;;;;;12.77;7.78;;;14.00;89.10;;;;;;10854235;32;20413;-75
2022/11/18 02:54:08;;;;;;;15.88;12.07;;;13.90;89.20;;;;;;10867296;32;20067;-75
2022/11/18 03:00:10;;;;;;;15.68;11.55;;;14.00;89.40;;;;;;10867042;32;20058;-75
2022/11/18 03:06:34;;;;;;;20.02;12.63;;;14.10;89.20;;;;;;10853933;32;20049;-75
2022/11/18 03:12:51;;;;;;;14.43;9.38;;;14.10;89.20;;;;;;10866682;32;20058;-75
2022/11/18 03:19:19;;;;;;;12.88;9.13;;;14.10;89.20;;;;;;10853821;32;20024;-74
2022/11/18 03:25:30;;;;;;;10.98;7.55;;;14.20;89.20;;;;;;10865940;32;20063;-75
2022/11/18 03:31:40;;;;;;;10.20;6.90;;;14.10;89.00;;;;;;10866066;32;20433;-75
2022/11/18 03:37:44;;;;;;;10.57;7.07;;;13.80;89.10;;;;;;10865862;32;20383;-75
2022/11/18 03:43:56;;;;;;;11.20;7.18;;;13.90;89.30;;;;;;10852493;32;20035;-74
2022/11/18 03:50:07;;;;;;;13.00;6.65;;;13.80;89.10;;;;;;10852336;32;20330;-75
2022/11/18 03:56:14;;;;;;;13.00;9.50;;;13.70;89.20;;;;;;10865402;32;20342;-75
2022/11/18 04:02:24;;;;;;;12.85;8.60;;;13.80;89.40;;;;;;10865203;32;20047;-75
2022/11/18 04:08:32;;;;;;;9.82;6.05;;;13.80;89.10;;;;;;10851697;32;20058;-74
2022/11/18 04:14:39;;;;;;;11.23;7.22;;;13.70;89.20;;;;;;10864679;32;20024;-75
2022/11/18 04:20:41;;;;;;;13.43;9.00;;;13.70;89.30;;;;;;10864623;32;20089;-74
2022/11/18 04:26:43;;;;;;;11.23;7.93;;;13.80;89.30;;;;;;10864497;32;20054;-75
2022/11/18 04:32:46;;;;;;;19.60;10.93;;;13.70;89.00;;;;;;10864095;32;20028;-75
2022/11/18 04:38:48;;;;;;;11.38;8.32;;;13.60;89.20;;;;;;10850319;32;20383;-75
2022/11/18 04:44:51;;;;;;;11.52;8.43;;;13.70;89.20;;;;;;10858168;32;20091;-74
2022/11/18 04:50:56;;;;;;;11.18;7.57;;;13.80;89.10;;;;;;11020060;32;20026;-74
2022/11/18 04:56:58;;;;;;;8.82;5.82;;;13.90;89.00;;;;;;11006305;32;20030;-74
2022/11/18 05:03:00;;;;;;;8.65;5.55;;;13.70;89.00;;;;;;11015282;32;20382;-74
2022/11/18 05:09:02;;;;;;;15.52;10.52;;;13.70;89.20;;;;;;11019571;32;20299;-74
2022/11/18 05:15:05;;;;;;;11.65;7.80;;;13.70;89.40;;;;;;11019453;32;20026;-75
2022/11/18 05:21:07;;;;;;;11.38;6.70;;;13.90;89.20;;;;;;11017970;32;20034;-74
2022/11/18 05:27:10;;;;;;;11.88;7.10;;;14.00;89.00;;;;;;11018766;32;20025;-74
2022/11/18 05:33:12;;;;;;;10.50;6.15;;;13.90;88.90;;;;;;11018701;32;20451;-74
2022/11/18 05:39:14;;;;;;;11.57;6.25;;;14.00;88.90;;;;;;11018558;32;20318;-74
2022/11/18 05:45:18;;;;;;;13.25;9.13;;;13.90;88.80;;;;;;11004483;32;20435;-74
2022/11/18 05:51:20;;;;;;;10.15;6.85;;;13.80;89.10;;;;;;11014073;32;20049;-74
2022/11/18 05:57:22;;;;;;;11.70;8.80;;;14.00;89.10;;;;;;11018087;32;20034;-75
2022/11/18 06:03:28;;;;;;;10.40;7.90;;;14.10;88.70;;;;;;11004190;32;20053;-75
2022/11/18 06:09:36;;;;;;;10.38;8.20;;;13.90;88.60;;;;;;11017815;32;20030;-75
2022/11/18 06:15:42;;;;;;;12.67;9.53;;;13.80;88.90;;;;;;11017593;32;20057;-74
2022/11/18 06:21:45;;;;;;;12.40;8.38;;;13.70;88.90;;;;;;10992782;32;20291;-74
2022/11/18 06:27:49;;;;;;;14.00;9.70;;;13.70;89.00;;;;;;10979386;32;20341;-74
2022/11/18 06:33:53;;;;;;;11.00;6.70;;;13.70;89.20;;;;;;10965763;32;20330;-74
2022/11/18 06:39:55;;;;;;;14.65;8.13;;;13.80;89.00;;;;;;10978734;32;20046;-74
2022/11/18 06:52:22;;;;;;;15.35;10.02;;;13.80;88.90;;;;;;10979160;32;20091;-75
2022/11/18 06:58:25;;;;;;;23.12;11.63;;;13.80;88.80;;;;;;10981538;32;20314;-74
2022/11/18 07:04:27;;;;;;;15.30;8.68;;;13.80;89.00;;;;;;10982087;32;20023;-74
2022/11/18 07:10:29;;;;;;;14.57;10.35;;;13.90;88.80;;;;;;10977535;32;20094;-75
2022/11/18 07:16:34;;;;;;;11.95;6.55;;;13.80;88.80;;;;;;10965172;32;20049;-74
2022/11/18 07:22:36;;;;;;;21.30;16.10;;;13.80;88.90;;;;;;10947280;32;20026;-76
2022/11/18 07:28:39;;;;;;;15.13;9.90;;;13.70;88.90;;;;;;10946338;32;20053;-74
2022/11/18 07:34:41;;;;;;;17.60;13.93;;;13.60;88.90;;;;;;10935110;32;20089;-74
2022/11/18 07:40:44;;;;;;;16.08;10.82;;;13.60;89.10;;;;;;10929256;32;20039;-75
2022/11/18 07:46:46;;;;;;;23.52;16.30;;;13.60;88.90;;;;;;10928829;32;20026;-75
2022/11/18 07:52:48;;;;;;;21.90;15.48;;;13.70;89.00;;;;;;10946516;32;20042;-75
2022/11/18 07:58:55;;;;;;;22.75;14.30;;;13.70;88.90;;;;;;10946264;32;20023;-75
2022/11/18 08:04:57;;;;;;;15.57;10.20;;;13.70;88.90;;;;;;10946094;32;20349;-75
2022/11/18 08:11:01;;;;;;;16.92;11.90;;;13.80;88.90;;;;;;10944806;32;20026;-75
2022/11/18 08:17:03;;;;;;;14.77;10.73;;;13.70;88.90;;;;;;10945597;32;20050;-75
2022/11/18 08:23:05;;;;;;;22.70;14.75;;;13.90;89.00;;;;;;10532617;32;12247651;-74
2022/11/18 08:29:08;;;;;;;15.07;10.93;;;14.10;88.90;;;;;;10866713;32;20019;-74
2022/11/18 08:35:10;;;;;;;18.70;10.60;;;14.10;88.60;;;;;;10866078;32;20150;-74
2022/11/18 08:41:20;;;;;;;28.70;23.05;;;14.20;88.90;;;;;;10865412;32;20054;-74
2022/11/18 08:47:22;;;;;;;13.60;9.88;;;14.50;88.90;;;;;;10882873;32;20058;-76
2022/11/18 08:53:24;;;;;;;14.75;10.38;;;14.40;88.60;;;;;;10944184;32;20049;-73
2022/11/18 08:59:27;;;;;;;27.85;22.30;;;14.30;88.60;;;;;;10943813;32;20074;-74
2022/11/18 09:05:29;;;;;;;26.90;19.85;;;14.20;88.60;;;;;;10943671;32;20027;-74
2022/11/18 09:11:31;;;;;;;38.30;26.65;;;14.10;88.20;;;;;;10972824;32;20398;-73
2022/11/18 09:17:34;;;;;;;44.17;27.77;;;14.00;87.80;;;;;;10963398;32;20026;-74
2022/11/18 09:23:37;;;;;;;45.83;33.60;;;13.90;87.80;;;;;;10980128;32;20061;-74
2022/11/18 09:29:39;;;;;;;42.22;30.70;;;13.90;87.90;;;;;;10966283;32;20030;-76
2022/11/18 09:35:42;;;;;;;48.00;31.35;;;13.80;87.80;;;;;;10980331;32;20385;-74
2022/11/18 09:42:14;;;;;;;37.05;29.30;;;13.80;87.70;;;;;;10975639;32;20029;-75
2022/11/18 09:49:11;;;;;;;54.40;36.72;;;14.00;87.80;;;;;;10970189;32;20026;-74
2022/11/18 09:54:46;;;;;;;41.25;26.90;;;14.20;87.50;;;;;;10979900;32;20402;-74
2022/11/18 10:00:49;;;;;;;45.88;34.67;;;14.30;87.20;;;;;;10969997;32;20065;-74
2022/11/18 10:06:51;;;;;;;42.47;33.45;;;14.30;86.60;;;;;;10965061;32;20061;-74
2022/11/18 10:13:09;;;;;;;40.92;28.23;;;14.40;86.90;;;;;;10954749;32;20342;-74
2022/11/18 10:19:30;;;;;;;31.65;24.23;;;14.50;86.80;;;;;;10974415;32;20084;-73
2022/11/18 10:25:32;;;;;;;48.95;35.50;;;14.90;87.30;;;;;;10960398;32;20362;-76
2022/11/18 10:31:54;;;;;;;46.35;36.28;;;15.20;86.70;;;;;;10941512;32;20031;-76
2022/11/18 10:38:20;;;;;;;34.35;27.37;;;15.30;86.00;;;;;;10756124;33;20032;-76
2022/11/18 10:44:31;;;;;;;53.97;35.90;;;15.30;85.80;;;;;;10753321;33;20117;-75
2022/11/18 10:50:39;;;;;;;25.60;20.20;;;15.40;85.30;;;;;;10758596;33;20012;-74
2022/11/18 10:56:53;;;;;;;29.33;21.50;;;15.40;85.60;;;;;;10759681;33;20033;-74
2022/11/18 11:02:55;;;;;;;34.90;28.00;;;15.60;85.80;;;;;;10759368;33;20317;-75
2022/11/18 11:09:00;;;;;;;38.90;30.67;;;15.50;84.80;;;;;;10759233;33;20024;-75
2022/11/18 11:15:09;;;;;;;41.08;31.50;;;15.60;85.40;;;;;;10911076;32;20062;-75
2022/11/18 11:21:17;;;;;;;39.95;31.92;;;15.70;85.20;;;;;;10947430;32;20035;-74
2022/11/18 11:27:43;;;;;;;38.63;32.03;;;16.00;84.60;;;;;;10947078;32;20399;-74
2022/11/18 11:33:57;;;;;;;32.33;22.52;;;16.20;84.10;;;;;;10933430;32;20399;-75
2022/11/18 11:40:25;;;;;;;32.30;25.52;;;16.10;84.10;;;;;;10942608;32;20041;-73
2022/11/18 11:46:32;;;;;;;60.17;43.30;;;16.20;83.90;;;;;;10946411;32;20338;-74
2022/11/18 11:52:38;;;;;;;41.50;28.15;;;16.20;82.90;;;;;;10946291;32;20027;-74
2022/11/18 11:59:01;;;;;;;41.78;33.53;;;16.10;82.60;;;;;;10945975;32;20027;-75
2022/11/18 12:05:33;;;;;;;52.05;36.47;;;16.20;82.00;;;;;;10932105;32;20023;-74
2022/11/18 12:12:00;;;;;;;41.37;27.45;;;16.20;82.20;;;;;;10945433;32;20351;-75
2022/11/18 12:18:18;;;;;;;29.42;24.08;;;16.20;82.50;;;;;;10751559;33;20064;-75
2022/11/18 12:24:31;;;;;;;35.00;29.73;;;16.20;82.40;;;;;;10755134;33;20071;-73
2022/11/18 12:30:34;;;;;;;29.67;25.58;;;16.10;82.40;;;;;;10754666;33;20064;-74
2022/11/18 12:36:39;;;;;;;32.08;21.33;;;16.20;82.10;;;;;;10755754;33;20353;-74
2022/11/18 12:49:23;;;;;;;37.40;26.92;;;16.30;81.50;;;;;;10783140;33;20044;-74
2022/11/18 12:55:30;;;;;;;25.45;19.20;;;16.40;81.20;;;;;;10954796;32;20023;-74
2022/11/18 13:01:36;;;;;;;29.37;22.05;;;16.40;81.10;;;;;;10974593;32;20085;-73
2022/11/18 13:23:50;;;;;;;40.53;23.90;;;16.50;80.30;;;;;;10950688;32;20053;-74
2022/11/18 13:27:47;;;;;;;42.67;32.67;;;16.50;79.60;;;;;;10948523;32;20034;-74
2022/11/18 13:33:51;;;;;;;43.92;31.10;;;16.40;79.10;;;;;;10973826;32;20049;-74
2022/11/18 13:39:54;;;;;;;35.72;26.40;;;16.30;79.40;;;;;;10962445;32;21199;-75
2022/11/18 13:46:05;;;;;;;22.87;19.90;;;16.20;79.10;;;;;;10962773;32;20038;-75
2022/11/18 13:52:23;;;;;;;30.70;23.87;;;16.20;79.40;;;;;;10973611;32;20065;-74
2022/11/18 13:58:41;;;;;;;38.25;29.77;;;16.20;79.30;;;;;;10977198;32;20041;-75
2022/11/18 14:05:05;;;;;;;25.98;21.83;;;16.20;79.60;;;;;;10980753;32;20019;-74
2022/11/18 14:11:09;;;;;;;28.12;20.50;;;16.30;79.90;;;;;;10974924;32;20432;-74
2022/11/18 14:17:20;;;;;;;31.37;21.45;;;16.30;79.50;;;;;;10946253;32;20088;-73
2022/11/18 14:23:34;;;;;;;30.48;22.55;;;16.20;79.40;;;;;;10964140;32;20057;-73
2022/11/18 14:29:36;;;;;;;27.92;17.62;;;16.20;79.50;;;;;;10979244;32;20030;-73
2022/11/18 14:35:39;;;;;;;26.98;17.80;;;16.20;79.70;;;;;;10978969;32;20026;-73
2022/11/18 14:41:47;;;;;;;25.42;19.85;;;16.20;79.70;;;;;;10965553;32;20019;-73
2022/11/18 14:47:49;;;;;;;27.02;17.98;;;16.20;79.90;;;;;;10989143;27;20039;-73
2022/11/18 14:53:51;;;;;;;26.98;15.68;;;16.20;80.10;;;;;;11012806;32;20026;-74
2022/11/18 14:59:53;;;;;;;18.65;13.57;;;16.20;80.50;;;;;;11016693;32;20030;-75
2022/11/18 15:05:56;;;;;;;20.00;14.40;;;16.20;80.70;;;;;;11003204;32;20030;-75
2022/11/18 15:11:58;;;;;;;16.83;14.30;;;16.20;80.90;;;;;;11016629;32;20300;-75
2022/11/18 15:18:00;;;;;;;15.98;12.52;;;16.20;81.50;;;;;;11017038;32;20022;-74
2022/11/18 15:24:02;;;;;;;14.75;11.38;;;16.20;81.90;;;;;;11023259;32;20080;-74
2022/11/18 15:30:05;;;;;;;13.98;10.63;;;16.20;82.20;;;;;;11022880;32;20296;-73
2022/11/18 15:36:14;;;;;;;16.17;10.07;;;16.00;82.80;;;;;;11022798;32;20031;-73
2022/11/18 15:42:17;;;;;;;;;;;16.00;83.10;;;;;;11022793;32;20052;-73
2022/11/18 15:48:19;;;;;;;17.55;12.30;;;16.00;83.40;;;;;;11022323;32;19948;-73
2022/11/18 15:54:21;;;;;;;18.92;14.00;;;16.00;83.60;;;;;;11022258;32;20026;-73
2022/11/18 16:00:23;;;;;;;17.10;13.82;;;16.00;83.60;;;;;;11009496;32;20381;-73
2022/11/18 16:06:28;;;;;;;22.35;14.25;;;15.90;84.00;;;;;;10983571;32;20099;-73
2022/11/18 16:12:48;;;;;;;18.42;15.05;;;15.90;84.00;;;;;;10984160;32;20346;-73
2022/11/18 16:18:58;;;;;;;20.15;14.02;;;15.80;84.00;;;;;;11018015;32;20029;-73
2022/11/18 16:25:00;;;;;;;15.13;12.70;;;15.70;84.10;;;;;;11020882;32;20052;-73
2022/11/18 16:37:25;;;;;;;21.87;17.42;;;15.70;84.20;;;;;;11020427;32;20045;-73
2022/11/18 16:43:28;;;;;;;24.35;13.30;;;15.70;84.70;;;;;;11020321;32;20030;-73
2022/11/18 16:49:34;;;;;;;22.55;17.83;;;15.50;84.70;;;;;;11020195;32;20018;-73
2022/11/18 16:55:36;;;;;;;20.15;14.98;;;15.40;84.90;;;;;;11020104;32;20022;-74
2022/11/18 17:01:41;;;;;;;26.90;21.02;;;15.30;84.90;;;;;;11020031;32;20015;-74
2022/11/18 17:07:43;;;;;;;21.92;16.45;;;15.20;84.80;;;;;;11019530;32;20065;-73
2022/11/18 17:13:45;;;;;;;24.58;18.55;;;14.90;85.30;;;;;;11019470;32;20014;-73
2022/11/18 17:19:47;;;;;;;22.40;18.83;;;15.10;85.40;;;;;;11019236;32;20151;-73
2022/11/18 17:25:49;;;;;;;30.58;20.73;;;15.00;85.20;;;;;;11018790;32;20038;-73
2022/11/18 17:31:52;;;;;;;33.72;27.02;;;14.90;85.20;;;;;;11018848;32;20021;-73
2022/11/18 17:37:54;;;;;;;25.50;19.27;;;14.90;85.20;;;;;;11018701;32;20049;-73
2022/11/18 17:44:00;;;;;;;25.10;17.70;;;15.00;85.20;;;;;;10984499;32;20030;-73
2022/11/18 17:50:03;;;;;;;20.62;18.10;;;14.90;85.10;;;;;;11012306;32;20099;-73
2022/11/18 17:56:08;;;;;;;21.25;19.00;;;14.90;85.00;;;;;;11018225;32;20026;-73
2022/11/18 18:02:11;;;;;;;25.90;17.30;;;14.90;84.80;;;;;;11017145;32;20022;-73
2022/11/18 18:08:13;;;;;;;23.98;20.00;;;14.80;84.80;;;;;;11017987;32;20053;-73
2022/11/18 18:14:15;;;;;;;23.52;19.80;;;14.80;84.90;;;;;;11004155;32;20045;-73
2022/11/18 18:20:17;;;;;;;22.40;17.65;;;14.70;84.90;;;;;;11017603;32;20045;-73
2022/11/18 18:26:19;;;;;;;22.37;17.08;;;14.70;84.80;;;;;;11017512;32;20018;-75
2022/11/18 18:32:21;;;;;;;19.05;14.63;;;14.60;84.80;;;;;;11017337;32;20027;-75
2022/11/18 18:38:24;;;;;;;21.37;17.73;;;14.60;84.70;;;;;;11003658;32;20046;-75
2022/11/18 18:46:27;;;;;;;21.08;15.38;;;14.60;84.50;;;;;;11017124;32;20034;-75
2022/11/18 18:50:49;;;;;;;19.23;13.77;;;14.50;84.50;;;;;;11017139;32;20037;-75
2022/11/18 18:56:53;;;;;;;17.25;13.07;;;14.40;84.40;;;;;;11021957;32;20058;-75
2022/11/18 19:02:56;;;;;;;19.70;12.95;;;14.30;84.50;;;;;;11023631;32;20053;-74
2022/11/18 19:09:01;;;;;;;16.80;12.73;;;14.10;84.50;;;;;;11023609;32;20044;-75
2022/11/18 19:15:04;;;;;;;15.75;12.13;;;13.90;84.80;;;;;;11023488;32;20483;-76
2022/11/18 19:21:10;;;;;;;17.35;11.98;;;13.80;84.90;;;;;;11023324;32;20030;-75
2022/11/18 19:27:12;;;;;;;20.58;15.15;;;13.90;84.70;;;;;;11020625;32;20334;-74
2022/11/18 19:33:14;;;;;;;20.92;15.73;;;14.00;84.60;;;;;;11022816;32;20034;-74
2022/11/18 19:39:16;;;;;;;16.65;13.10;;;14.10;84.60;;;;;;11022346;32;20341;-74
2022/11/18 19:45:18;;;;;;;21.33;17.08;;;14.00;84.80;;;;;;11019483;32;20034;-74
2022/11/18 19:51:20;;;;;;;19.52;12.80;;;14.00;85.00;;;;;;11021677;32;20030;-74
2022/11/18 19:57:22;;;;;;;18.73;13.27;;;14.00;84.80;;;;;;11008128;32;20337;-74
2022/11/18 20:03:27;;;;;;;18.60;13.27;;;13.80;84.90;;;;;;11021649;32;20353;-74
2022/11/18 20:09:29;;;;;;;15.05;11.30;;;13.80;84.80;;;;;;11017259;32;20027;-74
2022/11/18 20:15:31;;;;;;;20.73;14.25;;;13.80;84.70;;;;;;11021274;32;20057;-74
2022/11/18 20:21:34;;;;;;;18.20;13.02;;;13.60;85.10;;;;;;11021019;32;20084;-74
2022/11/18 20:27:36;;;;;;;20.17;15.18;;;13.50;85.20;;;;;;11020750;32;20432;-74
2022/11/18 20:33:39;;;;;;;25.20;16.70;;;13.50;85.20;;;;;;11016352;32;20019;-74
2022/11/18 20:39:41;;;;;;;33.17;27.10;;;13.60;85.30;;;;;;11020018;32;20034;-74
2022/11/18 20:45:51;;;;;;;24.58;20.48;;;13.70;85.50;;;;;;11019962;32;20095;-74
2022/11/18 20:51:54;;;;;;;24.35;19.45;;;13.70;85.20;;;;;;11006527;32;20444;-74
2022/11/18 20:57:56;;;;;;;28.25;21.10;;;13.50;85.60;;;;;;11019894;32;20022;-74
2022/11/18 21:04:00;;;;;;;34.38;27.92;;;13.50;85.50;;;;;;11019449;32;20320;-74
2022/11/18 21:10:03;;;;;;;35.08;26.33;;;13.50;85.30;;;;;;11018767;32;20014;-74
2022/11/18 21:16:05;;;;;;;27.42;22.55;;;13.60;85.20;;;;;;11018985;32;20056;-74
2022/11/18 21:22:07;;;;;;;26.17;21.67;;;13.60;85.00;;;;;;11019175;32;20041;-74
2022/11/18 21:28:10;;;;;;;24.67;19.40;;;13.50;84.90;;;;;;11014767;32;20314;-74
2022/11/18 21:34:15;;;;;;;23.40;18.83;;;13.50;84.80;;;;;;11018798;32;20072;-74
2022/11/18 21:40:17;;;;;;;21.65;17.60;;;13.30;84.80;;;;;;11018652;32;20026;-74
2022/11/18 21:46:20;;;;;;;24.92;19.02;;;13.30;84.70;;;;;;11018444;32;20398;-74
2022/11/18 21:52:22;;;;;;;23.02;17.33;;;13.20;84.80;;;;;;11018271;32;20027;-74
2022/11/18 21:58:24;;;;;;;27.33;18.65;;;13.00;85.00;;;;;;11013820;32;20029;-74
2022/11/18 22:10:47;;;;;;;28.38;18.35;;;13.00;85.30;;;;;;11017903;32;20023;-74
2022/11/18 22:16:57;;;;;;;25.25;19.98;;;13.10;85.10;;;;;;11017712;32;20030;-74
2022/11/18 22:23:00;;;;;;;28.00;22.20;;;13.20;85.00;;;;;;11017608;32;20026;-74
2022/11/18 22:29:08;;;;;;;;;;;13.20;84.80;;;;;;11020175;32;20030;-74
2022/11/18 22:35:12;;;;;;;25.33;18.10;;;13.20;85.10;;;;;;11025984;32;19941;-74
2022/11/18 22:47:39;;;;;;;24.10;20.23;;;13.00;85.00;;;;;;11043345;26;20044;-74
2022/11/18 22:53:41;;;;;;;22.20;17.92;;;13.00;84.80;;;;;;11063057;32;20052;-74
2022/11/18 22:59:44;;;;;;;24.15;19.33;;;12.90;84.60;;;;;;11061808;32;20470;-74
2022/11/18 23:05:47;;;;;;;22.95;17.30;;;12.80;84.50;;;;;;11062662;32;20034;-76
2022/11/18 23:18:10;;;;;;;30.62;24.12;;;12.90;84.40;;;;;;11062225;32;20056;-73
2022/11/18 23:24:17;;;;;;;27.58;22.73;;;12.80;84.30;;;;;;11061889;32;20025;-75
2022/11/18 23:30:20;;;;;;;20.58;17.62;;;12.80;84.40;;;;;;11061728;32;20030;-75
2022/11/18 23:36:23;;;;;;;19.55;17.42;;;12.80;84.40;;;;;;11057239;32;20053;-74
2022/11/18 23:42:26;;;;;;;18.48;16.45;;;12.70;84.50;;;;;;11035797;32;20041;-73
2022/11/18 23:48:35;;;;;;;22.60;20.00;;;12.70;84.50;;;;;;11022491;32;20034;-74
2022/11/18 23:54:37;;;;;;;23.60;19.45;;;12.70;84.50;;;;;;11022529;32;20034;-74
